createdAt,value
2018-09-05T00:01:53.290Z,14.80
2018-09-05T00:04:21.749Z,15.40
2018-09-05T00:06:50.270Z,14.60
2018-09-05T00:09:18.708Z,13.87
2018-09-05T00:11:47.190Z,15.57
2018-09-05T00:14:15.710Z,14.77
2018-09-05T00:16:44.181Z,14.13
2018-09-05T00:19:12.762Z,14.20
2018-09-05T00:21:41.248Z,14.67
2018-09-05T00:24:09.725Z,13.87
2018-09-05T00:26:38.336Z,13.80
2018-09-05T00:29:06.839Z,14.60
2018-09-05T00:31:35.345Z,14.93
2018-09-05T00:34:03.842Z,13.57
2018-09-05T00:36:32.329Z,13.67
2018-09-05T00:39:00.796Z,16.03
2018-09-05T00:41:29.289Z,13.90
2018-09-05T00:43:57.733Z,13.70
2018-09-05T00:46:26.239Z,13.73
2018-09-05T00:48:54.708Z,14.03
2018-09-05T00:51:23.227Z,14.67
2018-09-05T00:53:51.715Z,13.60
2018-09-05T00:56:20.182Z,13.23
2018-09-05T00:58:48.642Z,13.67
2018-09-05T01:01:17.100Z,14.40
2018-09-05T01:03:45.635Z,14.50
2018-09-05T01:06:14.074Z,14.33
2018-09-05T01:08:42.579Z,14.00
2018-09-05T01:11:11.040Z,15.27
2018-09-05T01:13:39.470Z,14.13
2018-09-05T01:16:08.075Z,15.60
2018-09-05T01:18:36.512Z,14.73
2018-09-05T01:21:05.067Z,15.17
2018-09-05T01:23:33.516Z,15.17
2018-09-05T01:26:01.988Z,13.53
2018-09-05T01:28:30.431Z,15.80
2018-09-05T01:30:58.886Z,14.23
2018-09-05T01:33:27.366Z,17.00
2018-09-05T01:36:00.048Z,15.70
2018-09-05T01:38:28.760Z,15.30
2018-09-05T01:40:57.230Z,15.10
2018-09-05T01:43:25.895Z,16.77
2018-09-05T01:45:54.366Z,14.53
2018-09-05T01:48:22.855Z,14.10
2018-09-05T01:50:51.356Z,15.73
2018-09-05T01:53:19.835Z,14.60
2018-09-05T01:55:48.334Z,14.27
2018-09-05T01:58:16.799Z,15.13
2018-09-05T02:00:45.393Z,14.30
2018-09-05T02:03:13.842Z,13.83
2018-09-05T02:05:42.303Z,14.83
2018-09-05T02:08:10.818Z,11.80
2018-09-05T02:10:39.295Z,14.20
2018-09-05T02:13:07.747Z,13.90
2018-09-05T02:15:36.307Z,14.07
2018-09-05T02:18:04.847Z,14.47
2018-09-05T02:20:33.322Z,15.60
2018-09-05T02:23:01.828Z,15.47
2018-09-05T02:25:30.266Z,14.63
2018-09-05T02:27:58.846Z,14.70
2018-09-05T02:30:27.324Z,15.40
2018-09-05T02:32:55.799Z,13.47
2018-09-05T02:35:24.246Z,13.20
2018-09-05T02:37:52.716Z,14.83
2018-09-05T02:40:21.232Z,14.90
2018-09-05T02:42:49.704Z,14.50
2018-09-05T02:45:18.179Z,12.70
2018-09-05T02:47:46.793Z,14.10
2018-09-05T02:50:15.318Z,14.17
2018-09-05T02:52:43.827Z,14.77
2018-09-05T02:55:16.515Z,14.87
2018-09-05T02:57:45.028Z,13.33
2018-09-05T03:00:13.781Z,13.47
2018-09-05T03:02:42.225Z,14.03
2018-09-05T03:05:10.703Z,13.80
2018-09-05T03:07:39.144Z,13.30
2018-09-05T03:10:07.657Z,14.20
2018-09-05T03:12:36.109Z,13.27
2018-09-05T03:15:04.627Z,15.27
2018-09-05T03:17:33.073Z,15.57
2018-09-05T03:20:01.737Z,18.10
2018-09-05T03:22:30.215Z,16.30
2018-09-05T03:24:58.716Z,15.00
2018-09-05T03:27:27.168Z,16.63
2018-09-05T03:29:55.601Z,16.33
2018-09-05T03:32:24.132Z,18.97
2018-09-05T03:34:52.534Z,17.20
2018-09-05T03:37:21.156Z,14.83
2018-09-05T03:39:49.712Z,15.97
2018-09-05T03:42:18.182Z,14.90
2018-09-05T03:44:46.649Z,15.97
2018-09-05T03:47:15.239Z,15.83
2018-09-05T03:49:43.798Z,17.23
2018-09-05T03:52:12.201Z,16.77
2018-09-05T03:54:40.667Z,17.07
2018-09-05T03:57:11.111Z,17.43
2018-09-05T03:59:39.574Z,17.83
2018-09-05T04:02:08.058Z,18.80
2018-09-05T04:04:36.542Z,16.67
2018-09-05T04:07:05.068Z,18.77
2018-09-05T04:09:33.516Z,18.23
2018-09-05T04:12:02.023Z,17.80
2018-09-05T04:14:30.465Z,19.10
2018-09-05T04:16:58.952Z,19.50
2018-09-05T04:19:27.439Z,20.50
2018-09-05T04:21:55.970Z,22.43
2018-09-05T04:24:24.397Z,21.60
2018-09-05T04:26:52.976Z,20.47
2018-09-05T04:29:21.438Z,22.03
2018-09-05T04:31:50.105Z,20.77
2018-09-05T04:34:18.561Z,20.73
2018-09-05T04:36:47.090Z,20.87
2018-09-05T04:39:15.567Z,19.93
2018-09-05T04:41:44.077Z,20.37
2018-09-05T04:44:12.525Z,22.00
2018-09-05T04:46:40.991Z,22.07
2018-09-05T04:49:09.446Z,22.87
2018-09-05T04:51:38.027Z,22.37
2018-09-05T04:54:06.813Z,25.00
2018-09-05T04:56:35.318Z,24.50
2018-09-05T04:59:03.822Z,20.97
2018-09-05T05:01:32.280Z,22.50
2018-09-05T05:04:00.783Z,21.50
2018-09-05T05:06:29.327Z,22.20
2018-09-05T05:08:57.832Z,21.80
2018-09-05T05:11:26.290Z,20.03
2018-09-05T05:13:54.925Z,21.40
2018-09-05T05:16:23.362Z,18.70
2018-09-05T05:18:51.835Z,19.17
2018-09-05T05:21:20.383Z,19.13
2018-09-05T05:23:48.855Z,17.83
2018-09-05T05:26:17.382Z,18.43
2018-09-05T05:28:45.923Z,16.93
2018-09-05T05:31:14.377Z,18.70
2018-09-05T05:33:42.860Z,16.67
2018-09-05T05:36:11.322Z,16.87
2018-09-05T05:38:39.806Z,15.77
2018-09-05T05:41:08.332Z,16.07
2018-09-05T05:43:37.104Z,15.33
2018-09-05T05:46:05.859Z,15.43
2018-09-05T05:48:34.350Z,17.20
2018-09-05T05:51:03.124Z,16.90
2018-09-05T05:53:31.653Z,17.23
2018-09-05T05:56:00.215Z,15.97
2018-09-05T05:58:28.717Z,15.20
2018-09-05T06:00:57.334Z,15.97
2018-09-05T06:03:25.692Z,15.80
2018-09-05T06:05:54.186Z,16.17
2018-09-05T06:08:22.647Z,14.73
2018-09-05T06:10:51.194Z,16.70
2018-09-05T06:13:19.683Z,14.30
2018-09-05T06:15:48.204Z,14.90
2018-09-05T06:18:16.775Z,14.10
2018-09-05T06:20:45.309Z,14.00
2018-09-05T06:23:13.770Z,15.10
2018-09-05T06:25:42.290Z,14.17
2018-09-05T06:28:10.798Z,14.30
2018-09-05T06:30:39.552Z,14.40
2018-09-05T06:33:07.930Z,14.00
2018-09-05T06:35:36.457Z,12.50
2018-09-05T06:38:05.099Z,14.87
2018-09-05T06:40:33.557Z,13.23
2018-09-05T06:43:02.042Z,14.20
2018-09-05T06:45:30.544Z,15.67
2018-09-05T06:47:59.026Z,16.80
2018-09-05T06:50:27.518Z,14.67
2018-09-05T06:52:55.987Z,15.43
2018-09-05T06:55:24.500Z,14.30
2018-09-05T06:57:53.170Z,16.07
2018-09-05T07:00:21.712Z,16.50
2018-09-05T07:02:50.261Z,15.67
2018-09-05T07:05:19.500Z,16.40
2018-09-05T07:07:48.026Z,15.33
2018-09-05T07:10:16.575Z,15.20
2018-09-05T07:12:45.119Z,14.93
2018-09-05T07:15:13.631Z,14.73
2018-09-05T07:17:42.265Z,15.23
2018-09-05T07:20:10.600Z,15.40
2018-09-05T07:22:39.083Z,14.50
2018-09-05T07:25:07.970Z,15.03
2018-09-05T07:27:36.421Z,14.57
2018-09-05T07:30:05.272Z,14.67
2018-09-05T07:32:33.921Z,14.40
2018-09-05T07:35:02.387Z,13.20
2018-09-05T07:37:30.906Z,14.77
2018-09-05T07:40:00.357Z,16.73
2018-09-05T07:42:28.854Z,14.93
2018-09-05T07:44:57.344Z,14.10
2018-09-05T07:47:25.999Z,13.93
2018-09-05T07:49:54.456Z,14.87
2018-09-05T07:52:22.913Z,14.70
2018-09-05T07:54:51.436Z,16.67
2018-09-05T07:57:19.972Z,16.20
2018-09-05T07:59:48.411Z,15.47
2018-09-05T08:02:16.974Z,15.60
2018-09-05T08:04:45.511Z,14.60
2018-09-05T08:07:14.383Z,15.73
2018-09-05T08:09:42.816Z,13.43
2018-09-05T08:12:11.293Z,14.60
2018-09-05T08:14:39.797Z,14.40
2018-09-05T08:17:08.268Z,16.33
2018-09-05T08:19:36.889Z,15.33
2018-09-05T08:22:05.535Z,14.30
2018-09-05T08:24:33.991Z,13.90
2018-09-05T08:27:02.522Z,13.60
2018-09-05T08:29:31.021Z,14.53
2018-09-05T08:31:59.502Z,13.30
2018-09-05T08:34:28.074Z,12.63
2018-09-05T08:36:56.806Z,13.00
2018-09-05T08:39:25.125Z,13.43
2018-09-05T08:41:53.717Z,13.00
2018-09-05T08:44:22.358Z,12.50
2018-09-05T08:46:50.792Z,12.97
2018-09-05T08:49:19.248Z,13.90
2018-09-05T08:51:47.801Z,12.40
2018-09-05T08:54:16.288Z,12.67
2018-09-05T08:56:44.842Z,13.50
2018-09-05T08:59:13.316Z,12.80
2018-09-05T09:01:41.782Z,12.63
2018-09-05T09:04:10.365Z,12.57
2018-09-05T09:06:38.823Z,12.23
2018-09-05T09:09:09.010Z,13.30
2018-09-05T09:11:37.830Z,11.67
2018-09-05T09:14:06.816Z,12.10
2018-09-05T09:16:35.360Z,11.50
2018-09-05T09:19:03.878Z,12.20
2018-09-05T09:21:32.534Z,13.20
2018-09-05T09:24:01.513Z,11.40
2018-09-05T09:26:30.003Z,10.60
2018-09-05T09:28:59.216Z,10.73
2018-09-05T09:31:27.956Z,11.63
2018-09-05T09:33:56.455Z,11.90
2018-09-05T09:36:24.932Z,12.90
2018-09-05T09:38:53.426Z,12.20
2018-09-05T09:41:21.880Z,12.30
2018-09-05T09:43:50.380Z,13.17
2018-09-05T09:46:18.942Z,11.93
2018-09-05T09:48:47.412Z,12.07
2018-09-05T09:51:15.983Z,11.73
2018-09-05T09:53:44.449Z,12.47
2018-09-05T09:56:12.946Z,13.20
2018-09-05T09:58:41.506Z,13.33
2018-09-05T10:01:15.213Z,14.37
2018-09-05T10:03:49.216Z,14.57
2018-09-05T10:06:19.506Z,12.90
2018-09-05T10:08:53.309Z,13.53
2018-09-05T10:11:27.172Z,13.40
2018-09-05T10:14:00.875Z,13.80
2018-09-05T10:16:34.659Z,12.50
2018-09-05T10:19:07.833Z,14.57
2018-09-05T10:21:37.108Z,12.83
2018-09-05T10:24:05.609Z,13.57
2018-09-05T10:26:34.254Z,12.40
2018-09-05T10:29:02.729Z,13.60
2018-09-05T10:31:31.223Z,14.13
2018-09-05T10:33:59.686Z,14.43
2018-09-05T10:36:28.208Z,14.00
2018-09-05T10:38:56.748Z,13.30
2018-09-05T10:41:25.654Z,14.50
2018-09-05T10:43:54.155Z,15.80
2018-09-05T10:46:22.677Z,14.10
2018-09-05T10:48:51.226Z,13.87
2018-09-05T10:51:24.204Z,14.23
2018-09-05T10:53:52.736Z,12.60
2018-09-05T10:56:21.178Z,12.60
2018-09-05T10:58:49.669Z,12.63
2018-09-05T11:01:18.250Z,13.43
2018-09-05T11:03:46.799Z,13.50
2018-09-05T11:06:15.375Z,13.83
2018-09-05T11:08:43.969Z,13.70
2018-09-05T11:11:12.504Z,13.60
2018-09-05T11:13:41.012Z,13.63
2018-09-05T11:16:09.603Z,12.93
2018-09-05T11:18:38.063Z,12.67
2018-09-05T11:21:06.665Z,13.57
2018-09-05T11:23:35.134Z,13.67
2018-09-05T11:26:03.615Z,13.00
2018-09-05T11:28:32.374Z,14.30
2018-09-05T11:31:00.862Z,14.37
2018-09-05T11:33:29.468Z,12.80
2018-09-05T11:35:58.002Z,12.80
2018-09-05T11:38:26.496Z,13.33
2018-09-05T11:40:55.040Z,12.90
2018-09-05T11:43:23.559Z,12.33
2018-09-05T11:45:52.030Z,12.63
2018-09-05T11:48:20.516Z,12.80
2018-09-05T11:50:49.012Z,13.30
2018-09-05T11:53:17.592Z,12.67
2018-09-05T11:55:46.052Z,13.17
2018-09-05T11:58:14.661Z,15.20
2018-09-05T12:00:43.200Z,13.90
2018-09-05T12:03:11.654Z,12.90
2018-09-05T12:05:40.119Z,14.47
2018-09-05T12:08:08.597Z,15.20
2018-09-05T12:10:37.077Z,16.60
2018-09-05T12:13:05.568Z,15.77
2018-09-05T12:15:34.064Z,13.67
2018-09-05T12:18:02.547Z,13.47
2018-09-05T12:20:31.037Z,13.80
2018-09-05T12:22:59.544Z,13.73
2018-09-05T12:25:28.081Z,13.90
2018-09-05T12:27:56.532Z,13.83
2018-09-05T12:30:24.999Z,14.10
2018-09-05T12:32:53.542Z,12.90
2018-09-05T12:35:22.058Z,13.20
2018-09-05T12:37:50.718Z,13.70
2018-09-05T12:40:19.208Z,13.87
2018-09-05T12:42:47.705Z,13.90
2018-09-05T12:45:16.244Z,14.10
2018-09-05T12:47:44.767Z,13.40
2018-09-05T12:50:13.340Z,13.90
2018-09-05T12:52:41.820Z,13.67
2018-09-05T12:55:10.292Z,14.30
2018-09-05T12:57:38.957Z,14.07
2018-09-05T13:00:07.485Z,14.37
2018-09-05T13:02:35.955Z,12.00
2018-09-05T13:05:04.754Z,12.73
2018-09-05T13:07:33.213Z,11.17
2018-09-05T13:10:01.694Z,12.67
2018-09-05T13:12:30.185Z,13.53
2018-09-05T13:14:58.673Z,13.30
2018-09-05T13:17:27.102Z,13.50
2018-09-05T13:19:55.610Z,12.40
2018-09-05T13:22:24.110Z,12.00
2018-09-05T13:24:52.628Z,12.47
2018-09-05T13:27:21.220Z,12.50
2018-09-05T13:29:50.239Z,11.80
2018-09-05T13:32:18.689Z,12.00
2018-09-05T13:34:47.352Z,11.00
2018-09-05T13:37:15.986Z,9.30
2018-09-05T13:39:44.451Z,7.93
2018-09-05T13:42:12.895Z,9.23
2018-09-05T13:44:41.366Z,8.87
2018-09-05T13:47:10.240Z,9.93
2018-09-05T13:49:38.718Z,8.40
2018-09-05T13:52:07.283Z,10.10
2018-09-05T13:54:43.365Z,8.67
2018-09-05T13:57:11.859Z,9.83
2018-09-05T13:59:40.423Z,7.70
2018-09-05T14:02:09.039Z,8.73
2018-09-05T14:04:37.542Z,8.30
2018-09-05T14:07:06.093Z,8.37
2018-09-05T14:09:34.570Z,8.50
2018-09-05T14:12:03.075Z,8.60
2018-09-05T14:14:31.679Z,9.07
2018-09-05T14:17:00.174Z,9.40
2018-09-05T14:19:28.765Z,9.13
2018-09-05T14:21:57.288Z,9.70
2018-09-05T14:24:25.924Z,10.97
2018-09-05T14:26:54.440Z,9.00
2018-09-05T14:29:22.945Z,9.70
2018-09-05T14:31:51.391Z,10.13
2018-09-05T14:34:23.487Z,10.10
2018-09-05T14:36:52.057Z,9.50
2018-09-05T14:39:20.528Z,9.70
2018-09-05T14:41:49.191Z,9.70
2018-09-05T14:44:17.637Z,8.50
2018-09-05T14:46:46.115Z,9.97
2018-09-05T14:49:14.588Z,9.97
2018-09-05T14:51:43.077Z,10.03
2018-09-05T14:54:11.646Z,9.67
2018-09-05T14:56:40.130Z,9.40
2018-09-05T14:59:08.563Z,10.00
2018-09-05T15:01:37.106Z,11.40
2018-09-05T15:04:05.720Z,9.47
2018-09-05T15:06:34.326Z,9.57
2018-09-05T15:09:02.820Z,9.87
2018-09-05T15:11:31.492Z,9.57
2018-09-05T15:14:00.004Z,9.70
2018-09-05T15:16:28.732Z,10.70
2018-09-05T15:18:57.227Z,10.90
2018-09-05T15:21:25.840Z,10.33
2018-09-05T15:23:54.365Z,10.60
2018-09-05T15:26:22.933Z,11.20
2018-09-05T15:28:51.449Z,11.03
2018-09-05T15:31:20.007Z,10.83
2018-09-05T15:33:48.580Z,11.10
2018-09-05T15:36:17.172Z,11.10
2018-09-05T15:38:46.045Z,10.70
2018-09-05T15:41:14.479Z,10.00
2018-09-05T15:43:43.000Z,10.80
2018-09-05T15:46:11.729Z,10.30
2018-09-05T15:48:40.232Z,10.13
2018-09-05T15:51:08.722Z,10.10
2018-09-05T15:53:37.262Z,10.00
2018-09-05T15:56:06.072Z,9.53
2018-09-05T15:58:34.556Z,10.73
2018-09-05T16:01:03.204Z,9.63
2018-09-05T16:03:31.692Z,9.73
2018-09-05T16:06:00.551Z,9.20
2018-09-05T16:08:28.999Z,10.00
2018-09-05T16:10:57.485Z,9.63
2018-09-05T16:13:25.937Z,9.63
2018-09-05T16:15:54.515Z,10.27
2018-09-05T16:18:23.015Z,10.90
2018-09-05T16:20:51.468Z,9.83
2018-09-05T16:23:19.954Z,10.13
2018-09-05T16:25:48.461Z,11.10
2018-09-05T16:28:17.178Z,10.90
2018-09-05T16:30:45.735Z,12.23
2018-09-05T16:33:14.210Z,11.23
2018-09-05T16:35:42.731Z,12.80
2018-09-05T16:38:11.500Z,12.17
2018-09-05T16:40:39.955Z,11.73
2018-09-05T16:43:08.655Z,12.17
2018-09-05T16:45:37.237Z,12.03
2018-09-05T16:48:06.375Z,11.70
2018-09-05T16:50:34.878Z,12.13
2018-09-05T16:53:03.470Z,11.37
2018-09-05T16:55:31.963Z,10.80
2018-09-05T16:58:00.560Z,12.87
2018-09-05T17:00:29.179Z,11.20
2018-09-05T17:02:57.663Z,11.03
2018-09-05T17:05:26.228Z,10.63
2018-09-05T17:07:54.826Z,11.20
2018-09-05T17:10:23.293Z,11.07
2018-09-05T17:12:51.838Z,12.13
2018-09-05T17:15:20.323Z,10.10
2018-09-05T17:17:48.828Z,11.30
2018-09-05T17:20:17.311Z,11.20
2018-09-05T17:22:45.801Z,11.27
2018-09-05T17:25:14.430Z,10.97
2018-09-05T17:27:42.984Z,11.17
2018-09-05T17:30:11.474Z,10.80
2018-09-05T17:32:40.083Z,11.97
2018-09-05T17:35:08.852Z,10.90
2018-09-05T17:37:37.370Z,11.30
2018-09-05T17:40:05.903Z,10.50
2018-09-05T17:42:34.382Z,10.77
2018-09-05T17:45:02.995Z,10.13
2018-09-05T17:47:31.540Z,11.07
2018-09-05T17:50:00.186Z,10.23
2018-09-05T17:52:28.769Z,10.80
2018-09-05T17:54:57.419Z,11.50
2018-09-05T17:57:25.938Z,10.90
2018-09-05T17:59:54.415Z,9.97
2018-09-05T18:02:22.966Z,10.03
2018-09-05T18:04:51.446Z,10.40
2018-09-05T18:07:19.951Z,11.63
2018-09-05T18:09:48.402Z,11.17
2018-09-05T18:12:17.057Z,10.73
2018-09-05T18:14:45.655Z,12.90
2018-09-05T18:17:14.265Z,11.57
2018-09-05T18:19:42.747Z,12.80
2018-09-05T18:22:11.226Z,12.50
2018-09-05T18:24:39.731Z,12.33
2018-09-05T18:27:08.411Z,13.77
2018-09-05T18:29:36.866Z,11.80
2018-09-05T18:32:05.340Z,11.97
2018-09-05T18:34:33.831Z,11.63
2018-09-05T18:37:02.499Z,12.33
2018-09-05T18:39:31.007Z,12.27
2018-09-05T18:41:59.562Z,11.53
2018-09-05T18:44:28.200Z,12.60
2018-09-05T18:46:56.707Z,11.60
2018-09-05T18:49:25.273Z,12.30
2018-09-05T18:51:53.839Z,11.67
2018-09-05T18:54:22.458Z,11.03
2018-09-05T18:56:51.577Z,10.70
2018-09-05T18:59:20.140Z,13.20
2018-09-05T19:01:48.615Z,11.30
2018-09-05T19:04:17.242Z,11.03
2018-09-05T19:06:45.721Z,11.60
2018-09-05T19:09:14.209Z,11.93
2018-09-05T19:11:42.663Z,10.63
2018-09-05T19:14:12.102Z,10.93
2018-09-05T19:16:40.629Z,11.33
2018-09-05T19:19:09.137Z,10.30
2018-09-05T19:21:37.809Z,10.67
2018-09-05T19:24:06.354Z,11.27
2018-09-05T19:26:34.945Z,10.40
2018-09-05T19:29:03.599Z,10.10
2018-09-05T19:31:32.323Z,10.43
2018-09-05T19:34:00.834Z,11.33
2018-09-05T19:36:29.408Z,10.93
2018-09-05T19:38:57.948Z,11.50
2018-09-05T19:41:26.431Z,10.90
2018-09-05T19:43:54.943Z,10.23
2018-09-05T19:46:23.583Z,11.10
2018-09-05T19:48:52.212Z,9.47
2018-09-05T19:51:20.765Z,10.93
2018-09-05T19:53:49.266Z,11.80
2018-09-05T19:56:17.759Z,12.07
2018-09-05T19:58:46.213Z,11.40
2018-09-05T20:01:14.720Z,11.37
2018-09-05T20:03:43.212Z,11.90
2018-09-05T20:06:11.921Z,11.63
2018-09-05T20:08:40.606Z,11.40
2018-09-05T20:11:09.324Z,12.30
2018-09-05T20:13:37.877Z,12.47
2018-09-05T20:16:12.958Z,12.90
2018-09-05T20:18:42.044Z,12.03
2018-09-05T20:21:10.509Z,14.33
2018-09-05T20:23:39.012Z,11.00
2018-09-05T20:26:07.495Z,11.37
2018-09-05T20:28:36.033Z,11.90
2018-09-05T20:31:04.659Z,11.23
2018-09-05T20:33:33.299Z,12.17
2018-09-05T20:36:01.780Z,12.10
2018-09-05T20:38:30.261Z,11.17
2018-09-05T20:40:58.758Z,10.93
2018-09-05T20:43:27.283Z,12.57
2018-09-05T20:45:55.764Z,11.93
2018-09-05T20:48:24.231Z,12.50
2018-09-05T20:50:52.872Z,11.80
2018-09-05T20:53:21.368Z,12.97
2018-09-05T20:55:49.822Z,11.20
2018-09-05T20:58:18.558Z,12.80
2018-09-05T21:00:47.183Z,12.93
2018-09-05T21:03:15.760Z,12.80
2018-09-05T21:05:44.349Z,13.43
2018-09-05T21:08:12.793Z,12.67
2018-09-05T21:10:41.411Z,12.23
2018-09-05T21:13:09.978Z,12.33
2018-09-05T21:15:38.560Z,12.90
2018-09-05T21:18:07.149Z,12.60
2018-09-05T21:20:35.698Z,12.57
2018-09-05T21:23:04.200Z,14.20
2018-09-05T21:25:32.694Z,13.67
2018-09-05T21:28:01.187Z,13.80
2018-09-05T21:30:29.735Z,13.33
2018-09-05T21:32:58.201Z,14.80
2018-09-05T21:35:26.683Z,14.40
2018-09-05T21:37:55.161Z,13.97
2018-09-05T21:40:23.689Z,14.33
2018-09-05T21:42:52.336Z,13.50
2018-09-05T21:45:20.877Z,13.97
2018-09-05T21:47:49.365Z,13.77
2018-09-05T21:50:17.857Z,14.93
2018-09-05T21:52:46.974Z,14.77
2018-09-05T21:55:15.663Z,14.40
2018-09-05T21:57:44.289Z,13.93
2018-09-05T22:00:12.899Z,14.53
2018-09-05T22:02:41.452Z,13.93
2018-09-05T22:05:09.970Z,14.90
2018-09-05T22:07:38.450Z,14.53
2018-09-05T22:10:06.953Z,13.77
2018-09-05T22:12:35.864Z,14.30
2018-09-05T22:15:04.893Z,14.73
2018-09-05T22:17:33.395Z,14.93
2018-09-05T22:20:01.870Z,14.23
2018-09-05T22:22:30.330Z,15.00
2018-09-05T22:24:58.919Z,14.33
2018-09-05T22:27:27.575Z,13.73
2018-09-05T22:29:56.086Z,14.60
2018-09-05T22:32:24.859Z,15.00
2018-09-05T22:34:53.514Z,14.97
2018-09-05T22:37:23.351Z,15.80
2018-09-05T22:39:52.257Z,15.33
2018-09-05T22:42:20.744Z,16.60
2018-09-05T22:45:00.566Z,16.80
2018-09-05T22:48:39.224Z,15.30
2018-09-05T22:52:12.407Z,14.63
2018-09-05T22:57:01.624Z,16.70
2018-09-05T22:59:42.472Z,15.33
2018-09-05T23:03:01.243Z,16.37
2018-09-05T23:08:51.925Z,16.87
2018-09-05T23:11:31.500Z,16.10
2018-09-05T23:14:11.986Z,15.97
2018-09-05T23:19:00.656Z,16.70
2018-09-05T23:21:29.162Z,16.83
2018-09-05T23:24:01.952Z,16.90
2018-09-05T23:26:30.576Z,16.07
2018-09-05T23:28:59.101Z,16.57
2018-09-05T23:31:27.740Z,16.73
2018-09-05T23:33:56.559Z,16.13
2018-09-05T23:36:25.328Z,16.53
2018-09-05T23:38:53.939Z,17.10
2018-09-05T23:41:22.402Z,16.07
2018-09-05T23:43:50.888Z,16.43
2018-09-05T23:46:19.463Z,17.20
2018-09-05T23:48:48.044Z,16.70
2018-09-05T23:51:16.633Z,17.40
2018-09-05T23:53:45.202Z,17.47
2018-09-05T23:56:13.905Z,16.20
2018-09-05T23:58:42.368Z,17.23
